createdAt,value
2019-06-08T00:00:02.410Z,4.50
2019-06-08T00:00:38.457Z,1.70
2019-06-08T00:01:16.436Z,2.98
2019-06-08T00:01:52.795Z,2.98
2019-06-08T00:02:28.569Z,2.60
2019-06-08T00:03:05.162Z,3.72
2019-06-08T00:03:42.621Z,2.20
2019-06-08T00:04:18.592Z,3.80
2019-06-08T00:04:54.779Z,2.47
2019-06-08T00:05:32.281Z,3.27
2019-06-08T00:06:07.747Z,2.90
2019-06-08T00:06:43.901Z,4.47
2019-06-08T00:07:20.884Z,1.90
2019-06-08T00:07:56.809Z,4.08
2019-06-08T00:08:32.879Z,5.77
2019-06-08T00:09:09.936Z,1.70
2019-06-08T00:09:45.883Z,3.20
2019-06-08T00:10:25.540Z,3.65
2019-06-08T00:10:59.969Z,1.65
2019-06-08T00:11:36.424Z,3.72
2019-06-08T00:12:12.995Z,2.67
2019-06-08T00:12:50.131Z,2.55
2019-06-08T00:13:26.532Z,3.40
2019-06-08T00:14:02.644Z,2.42
2019-06-08T00:14:39.282Z,2.47
2019-06-08T00:15:16.067Z,2.27
2019-06-08T00:15:52.440Z,1.37
2019-06-08T00:16:29.081Z,1.32
2019-06-08T00:17:04.883Z,3.73
2019-06-08T00:17:40.944Z,4.00
2019-06-08T00:18:17.640Z,4.50
2019-06-08T00:18:53.953Z,3.30
2019-06-08T00:19:29.979Z,2.27
2019-06-08T00:20:07.077Z,2.85
2019-06-08T00:20:43.535Z,4.92
2019-06-08T00:21:20.108Z,1.70
2019-06-08T00:21:57.437Z,3.15
2019-06-08T00:22:33.942Z,1.35
2019-06-08T00:23:10.587Z,2.37
2019-06-08T00:23:47.361Z,2.53
2019-06-08T00:24:24.107Z,2.52
2019-06-08T00:25:00.243Z,2.42
2019-06-08T00:25:36.313Z,1.52
2019-06-08T00:26:12.427Z,4.20
2019-06-08T00:26:49.455Z,1.72
2019-06-08T00:27:26.093Z,3.27
2019-06-08T00:28:01.574Z,1.77
2019-06-08T00:28:38.223Z,3.20
2019-06-08T00:29:16.251Z,1.52
2019-06-08T00:29:51.906Z,6.37
2019-06-08T00:30:28.842Z,1.72
2019-06-08T00:31:05.760Z,4.00
2019-06-08T00:31:41.868Z,1.65
2019-06-08T00:32:18.492Z,1.27
2019-06-08T00:32:54.773Z,2.65
2019-06-08T00:33:31.208Z,3.50
2019-06-08T00:34:07.645Z,2.43
2019-06-08T00:34:44.102Z,3.33
2019-06-08T00:35:20.804Z,3.45
2019-06-08T00:35:57.363Z,1.40
2019-06-08T00:36:33.387Z,1.62
2019-06-08T00:37:08.853Z,1.92
2019-06-08T00:37:45.476Z,4.50
2019-06-08T00:38:23.022Z,4.72
2019-06-08T00:38:58.725Z,2.25
2019-06-08T00:39:35.142Z,1.92
2019-06-08T00:40:11.988Z,2.83
2019-06-08T00:40:47.519Z,2.02
2019-06-08T00:41:25.410Z,4.05
2019-06-08T00:42:02.312Z,1.90
2019-06-08T00:42:38.124Z,4.25
2019-06-08T00:43:15.292Z,3.62
2019-06-08T00:43:51.392Z,2.90
2019-06-08T00:44:27.823Z,3.58
2019-06-08T00:45:04.314Z,2.87
2019-06-08T00:45:40.638Z,1.52
2019-06-08T00:46:17.231Z,2.60
2019-06-08T00:46:54.792Z,1.80
2019-06-08T00:47:47.158Z,7.70
2019-06-08T00:48:09.074Z,3.87
2019-06-08T00:48:45.426Z,1.70
2019-06-08T00:49:22.700Z,3.23
2019-06-08T00:49:58.300Z,4.00
2019-06-08T00:50:34.357Z,1.25
2019-06-08T00:51:10.829Z,1.37
2019-06-08T00:51:47.850Z,2.92
2019-06-08T00:52:25.561Z,4.12
2019-06-08T00:53:01.730Z,3.97
2019-06-08T00:53:37.158Z,1.75
2019-06-08T00:54:13.302Z,3.00
2019-06-08T00:54:50.122Z,2.50
2019-06-08T00:55:25.979Z,2.77
2019-06-08T00:56:02.724Z,2.65
2019-06-08T00:56:38.755Z,1.57
2019-06-08T00:57:15.198Z,1.75
2019-06-08T00:57:51.538Z,2.60
2019-06-08T00:58:27.887Z,4.30
2019-06-08T00:59:03.595Z,5.25
2019-06-08T00:59:39.655Z,2.62
2019-06-08T01:00:18.203Z,3.22
2019-06-08T01:00:53.907Z,3.17
2019-06-08T01:01:30.922Z,1.92
2019-06-08T01:02:07.946Z,4.20
2019-06-08T01:02:43.972Z,2.05
2019-06-08T01:03:19.998Z,2.65
2019-06-08T01:03:56.741Z,1.92
2019-06-08T01:04:33.092Z,2.80
2019-06-08T01:05:10.001Z,2.20
2019-06-08T01:05:46.304Z,3.55
2019-06-08T01:06:22.998Z,2.92
2019-06-08T01:06:59.726Z,2.00
2019-06-08T01:07:36.100Z,6.75
2019-06-08T01:08:11.590Z,2.27
2019-06-08T01:08:47.736Z,2.92
2019-06-08T01:09:24.395Z,4.20
2019-06-08T01:10:00.526Z,3.33
2019-06-08T01:10:37.127Z,1.47
2019-06-08T01:11:13.749Z,2.98
2019-06-08T01:11:49.793Z,1.42
2019-06-08T01:12:26.911Z,2.72
2019-06-08T01:13:03.585Z,2.80
2019-06-08T01:13:39.642Z,1.82
2019-06-08T01:14:16.014Z,2.62
2019-06-08T01:14:52.065Z,1.80
2019-06-08T01:15:32.703Z,3.87
2019-06-08T01:16:05.976Z,2.22
2019-06-08T01:16:42.067Z,2.00
2019-06-08T01:17:19.082Z,2.70
2019-06-08T01:18:02.597Z,3.15
2019-06-08T01:18:34.281Z,2.37
2019-06-08T01:19:09.730Z,2.30
2019-06-08T01:19:47.737Z,2.25
2019-06-08T01:20:23.804Z,3.45
2019-06-08T01:20:59.623Z,1.60
2019-06-08T01:21:35.778Z,1.20
2019-06-08T01:22:12.436Z,2.03
2019-06-08T01:22:47.887Z,2.47
2019-06-08T01:23:25.605Z,2.33
2019-06-08T01:24:01.691Z,1.62
2019-06-08T01:24:37.521Z,2.65
2019-06-08T01:25:13.930Z,2.58
2019-06-08T01:25:50.338Z,2.33
2019-06-08T01:26:28.050Z,2.60
2019-06-08T01:27:04.319Z,1.30
2019-06-08T01:27:41.281Z,3.90
2019-06-08T01:28:16.727Z,3.02
2019-06-08T01:28:53.408Z,2.45
2019-06-08T01:29:30.251Z,2.90
2019-06-08T01:30:06.991Z,1.47
2019-06-08T01:30:43.615Z,2.87
2019-06-08T01:31:20.509Z,1.85
2019-06-08T01:31:56.039Z,1.60
2019-06-08T01:32:32.083Z,4.30
2019-06-08T01:33:08.466Z,2.20
2019-06-08T01:33:43.895Z,3.47
2019-06-08T01:34:20.643Z,5.35
2019-06-08T01:34:57.220Z,4.53
2019-06-08T01:35:33.576Z,2.37
2019-06-08T01:36:10.180Z,0.95
2019-06-08T01:36:46.793Z,1.52
2019-06-08T01:37:23.017Z,5.55
2019-06-08T01:37:59.951Z,2.40
2019-06-08T01:38:36.974Z,3.25
2019-06-08T01:39:12.436Z,2.22
2019-06-08T01:39:48.458Z,1.67
2019-06-08T01:40:25.375Z,1.82
2019-06-08T01:41:00.848Z,2.03
2019-06-08T01:41:37.501Z,1.82
2019-06-08T01:42:14.820Z,1.27
2019-06-08T01:42:50.273Z,2.87
2019-06-08T01:43:27.696Z,4.17
2019-06-08T01:44:04.509Z,2.58
2019-06-08T01:44:39.997Z,1.75
2019-06-08T01:45:32.396Z,1.65
2019-06-08T01:46:08.954Z,2.33
2019-06-08T01:46:44.390Z,2.03
2019-06-08T01:47:22.038Z,1.20
2019-06-08T01:47:59.426Z,2.42
2019-06-08T01:48:35.451Z,2.10
2019-06-08T01:49:12.110Z,2.20
2019-06-08T01:49:48.748Z,3.72
2019-06-08T01:50:24.849Z,2.13
2019-06-08T01:51:01.542Z,1.50
2019-06-08T01:51:38.199Z,3.98
2019-06-08T01:52:13.618Z,4.03
2019-06-08T01:52:49.638Z,2.03
2019-06-08T01:53:26.848Z,3.98
2019-06-08T01:54:03.223Z,4.15
2019-06-08T01:54:39.350Z,4.00
2019-06-08T01:55:15.615Z,3.10
2019-06-08T01:55:52.627Z,2.27
2019-06-08T01:56:29.314Z,2.00
2019-06-08T01:57:05.368Z,2.60
2019-06-08T01:57:41.009Z,2.58
2019-06-08T01:58:17.046Z,2.37
2019-06-08T01:58:53.131Z,4.90
2019-06-08T01:59:29.846Z,5.85
2019-06-08T02:00:29.123Z,5.30
2019-06-08T02:00:45.621Z,3.27
2019-06-08T02:01:21.168Z,4.60
2019-06-08T02:01:57.856Z,3.30
2019-06-08T02:02:34.475Z,3.77
2019-06-08T02:03:10.256Z,2.20
2019-06-08T02:03:46.263Z,3.12
2019-06-08T02:04:23.912Z,1.57
2019-06-08T02:05:00.148Z,3.40
2019-06-08T02:05:36.800Z,2.92
2019-06-08T02:06:13.085Z,4.07
2019-06-08T02:06:48.579Z,3.47
2019-06-08T02:07:26.343Z,1.77
2019-06-08T02:08:02.526Z,2.55
2019-06-08T02:08:39.161Z,3.45
2019-06-08T02:09:15.534Z,3.97
2019-06-08T02:09:51.587Z,2.37
2019-06-08T02:10:28.998Z,2.20
2019-06-08T02:11:05.477Z,2.85
2019-06-08T02:11:41.489Z,2.47
2019-06-08T02:12:17.342Z,1.67
2019-06-08T02:12:54.307Z,3.25
2019-06-08T02:13:31.028Z,1.97
2019-06-08T02:14:06.963Z,1.67
2019-06-08T02:14:43.105Z,3.77
2019-06-08T02:15:19.736Z,3.60
2019-06-08T02:15:55.801Z,1.50
2019-06-08T02:16:31.883Z,2.62
2019-06-08T02:17:07.910Z,0.97
2019-06-08T02:17:43.348Z,2.52
2019-06-08T02:18:35.111Z,5.00
2019-06-08T02:18:58.272Z,4.28
2019-06-08T02:19:34.831Z,3.35
2019-06-08T02:20:12.176Z,2.87
2019-06-08T02:20:49.192Z,2.90
2019-06-08T02:21:25.062Z,2.60
2019-06-08T02:22:02.091Z,4.30
2019-06-08T02:22:39.487Z,1.42
2019-06-08T02:23:15.023Z,2.67
2019-06-08T02:23:51.066Z,3.40
2019-06-08T02:24:27.245Z,2.87
2019-06-08T02:25:02.754Z,4.08
2019-06-08T02:25:39.670Z,1.82
2019-06-08T02:26:16.666Z,3.33
2019-06-08T02:26:52.125Z,4.43
2019-06-08T02:27:29.270Z,5.67
2019-06-08T02:28:05.950Z,2.50
2019-06-08T02:28:41.970Z,4.22
2019-06-08T02:29:18.672Z,1.45
2019-06-08T02:29:55.830Z,1.70
2019-06-08T02:30:36.063Z,2.45
2019-06-08T02:31:11.862Z,4.72
2019-06-08T02:31:48.522Z,2.20
2019-06-08T02:32:23.934Z,1.27
2019-06-08T02:33:00.606Z,2.02
2019-06-08T02:33:37.309Z,2.97
2019-06-08T02:34:13.303Z,2.03
2019-06-08T02:34:49.874Z,5.40
2019-06-08T02:35:27.903Z,3.08
2019-06-08T02:36:04.614Z,3.47
2019-06-08T02:36:40.821Z,6.90
2019-06-08T02:37:17.553Z,2.47
2019-06-08T02:37:53.651Z,2.75
2019-06-08T02:38:31.941Z,5.85
2019-06-08T02:39:09.423Z,3.27
2019-06-08T02:39:45.488Z,4.35
2019-06-08T02:40:21.718Z,5.10
2019-06-08T02:40:58.621Z,4.05
2019-06-08T02:41:37.401Z,3.27
2019-06-08T02:42:15.181Z,1.60
2019-06-08T02:42:52.512Z,3.85
2019-06-08T02:43:29.017Z,1.27
2019-06-08T02:44:06.805Z,2.85
2019-06-08T02:44:43.483Z,3.72
2019-06-08T02:45:20.940Z,2.17
2019-06-08T02:45:58.092Z,6.80
2019-06-08T02:46:35.962Z,4.47
2019-06-08T02:47:16.189Z,3.15
2019-06-08T02:47:50.785Z,1.98
2019-06-08T02:48:29.284Z,3.02
2019-06-08T02:49:06.075Z,3.70
2019-06-08T02:49:42.164Z,4.20
2019-06-08T02:50:22.255Z,2.52
2019-06-08T02:50:58.441Z,3.92
2019-06-08T02:51:38.064Z,3.10
2019-06-08T02:52:15.819Z,2.47
2019-06-08T02:52:53.350Z,3.42
2019-06-08T02:53:32.107Z,3.67
2019-06-08T02:54:07.899Z,4.67
2019-06-08T02:54:44.878Z,3.37
2019-06-08T02:55:21.243Z,4.57
2019-06-08T02:55:57.342Z,4.40
2019-06-08T02:56:36.744Z,4.92
2019-06-08T02:57:15.008Z,1.72
2019-06-08T02:57:52.883Z,3.22
2019-06-08T02:58:31.110Z,0.90
2019-06-08T02:59:07.379Z,1.47
2019-06-08T02:59:44.492Z,2.58
2019-06-08T03:00:20.931Z,1.75
2019-06-08T03:00:57.557Z,3.57
2019-06-08T03:01:37.918Z,1.62
2019-06-08T03:02:15.286Z,2.33
2019-06-08T03:02:53.120Z,2.20
2019-06-08T03:03:31.755Z,2.10
2019-06-08T03:04:08.212Z,2.80
2019-06-08T03:04:44.863Z,3.87
2019-06-08T03:05:21.001Z,4.43
2019-06-08T03:06:00.416Z,5.60
2019-06-08T03:06:41.180Z,2.60
2019-06-08T03:07:19.435Z,2.65
2019-06-08T03:07:56.551Z,4.03
2019-06-08T03:08:40.910Z,4.50
2019-06-08T03:09:17.448Z,5.08
2019-06-08T03:09:55.955Z,3.20
2019-06-08T03:10:35.086Z,3.93
2019-06-08T03:11:11.210Z,5.50
2019-06-08T03:11:49.563Z,4.00
2019-06-08T03:12:28.802Z,4.13
2019-06-08T03:13:06.934Z,2.67
2019-06-08T03:13:44.715Z,2.77
2019-06-08T03:14:22.882Z,3.37
2019-06-08T03:15:01.644Z,4.43
2019-06-08T03:15:38.609Z,1.80
2019-06-08T03:16:15.416Z,3.22
2019-06-08T03:16:51.552Z,5.10
2019-06-08T03:17:27.115Z,3.83
2019-06-08T03:18:03.315Z,4.95
2019-06-08T03:18:40.195Z,2.65
2019-06-08T03:19:22.167Z,3.72
2019-06-08T03:19:55.485Z,2.55
2019-06-08T03:20:33.486Z,4.30
2019-06-08T03:21:09.720Z,3.70
2019-06-08T03:21:45.766Z,8.07
2019-06-08T03:22:22.397Z,5.62
2019-06-08T03:22:58.836Z,6.78
2019-06-08T03:23:36.247Z,5.85
2019-06-08T03:24:12.493Z,5.70
2019-06-08T03:24:48.375Z,3.83
2019-06-08T03:25:24.542Z,3.23
2019-06-08T03:26:00.870Z,4.60
2019-06-08T03:26:37.137Z,2.70
2019-06-08T03:27:14.410Z,5.87
2019-06-08T03:27:50.437Z,6.95
2019-06-08T03:28:26.622Z,3.25
2019-06-08T03:29:03.397Z,5.28
2019-06-08T03:29:41.561Z,3.83
2019-06-08T03:30:19.629Z,4.00
2019-06-08T03:30:57.028Z,5.95
2019-06-08T03:31:38.437Z,3.77
2019-06-08T03:32:12.254Z,4.78
2019-06-08T03:32:55.536Z,4.55
2019-06-08T03:33:27.077Z,4.83
2019-06-08T03:34:02.597Z,3.83
2019-06-08T03:34:46.816Z,5.53
2019-06-08T03:35:17.019Z,5.67
2019-06-08T03:35:57.787Z,4.40
2019-06-08T03:36:30.320Z,6.07
2019-06-08T03:37:07.404Z,4.58
2019-06-08T03:37:44.574Z,5.17
2019-06-08T03:38:21.022Z,3.27
2019-06-08T03:38:57.743Z,3.85
2019-06-08T03:39:34.962Z,6.73
2019-06-08T03:40:11.419Z,3.58
2019-06-08T03:40:47.886Z,5.00
2019-06-08T03:41:23.374Z,2.55
2019-06-08T03:42:00.287Z,3.90
2019-06-08T03:42:36.314Z,4.87
2019-06-08T03:43:11.766Z,5.60
2019-06-08T03:43:48.447Z,3.75
2019-06-08T03:44:24.564Z,3.07
2019-06-08T03:45:00.715Z,7.90
2019-06-08T03:45:38.133Z,3.08
2019-06-08T03:46:14.946Z,4.78
2019-06-08T03:46:50.385Z,3.98
2019-06-08T03:47:26.510Z,6.30
2019-06-08T03:48:02.561Z,6.47
2019-06-08T03:48:40.066Z,6.10
2019-06-08T03:49:15.765Z,8.75
2019-06-08T03:49:57.100Z,4.87
2019-06-08T03:50:29.589Z,6.78
2019-06-08T03:51:06.374Z,3.40
2019-06-08T03:51:46.234Z,5.78
2019-06-08T03:52:20.144Z,4.37
2019-06-08T03:52:56.934Z,5.25
2019-06-08T03:53:33.031Z,3.83
2019-06-08T03:54:09.136Z,6.00
2019-06-08T03:54:47.078Z,5.20
2019-06-08T03:55:23.186Z,7.20
2019-06-08T03:55:59.263Z,4.70
2019-06-08T03:56:38.030Z,4.37
2019-06-08T03:57:14.684Z,3.42
2019-06-08T03:57:50.148Z,3.80
2019-06-08T03:58:27.066Z,5.28
2019-06-08T03:59:03.241Z,5.37
2019-06-08T03:59:40.791Z,4.40
2019-06-08T04:00:16.451Z,5.00
2019-06-08T04:00:52.497Z,8.63
2019-06-08T04:01:28.019Z,5.60
2019-06-08T04:02:04.120Z,5.00
2019-06-08T04:02:42.149Z,6.20
2019-06-08T04:03:17.618Z,3.17
2019-06-08T04:03:54.147Z,5.03
2019-06-08T04:04:30.641Z,5.17
2019-06-08T04:05:06.396Z,4.30
2019-06-08T04:05:44.251Z,7.53
2019-06-08T04:06:20.571Z,6.12
2019-06-08T04:06:57.090Z,7.90
2019-06-08T04:07:33.589Z,4.90
2019-06-08T04:08:09.657Z,5.67
2019-06-08T04:08:47.232Z,6.27
2019-06-08T04:09:22.841Z,6.70
2019-06-08T04:09:58.955Z,5.40
2019-06-08T04:10:35.103Z,8.30
2019-06-08T04:11:11.575Z,7.92
2019-06-08T04:11:47.660Z,8.48
2019-06-08T04:12:23.155Z,5.50
2019-06-08T04:13:00.018Z,10.05
2019-06-08T04:13:37.685Z,6.55
2019-06-08T04:14:14.386Z,5.72
2019-06-08T04:14:51.001Z,8.68
2019-06-08T04:15:27.110Z,6.60
2019-06-08T04:16:02.679Z,5.85
2019-06-08T04:16:40.244Z,7.78
2019-06-08T04:17:18.742Z,5.65
2019-06-08T04:17:54.253Z,4.07
2019-06-08T04:18:30.847Z,5.93
2019-06-08T04:19:06.896Z,7.85
2019-06-08T04:20:02.789Z,7.27
2019-06-08T04:20:20.732Z,7.83
2019-06-08T04:20:57.294Z,7.80
2019-06-08T04:21:32.807Z,6.77
2019-06-08T04:22:08.890Z,5.83
2019-06-08T04:22:47.729Z,5.50
2019-06-08T04:23:23.615Z,5.37
2019-06-08T04:24:00.607Z,5.13
2019-06-08T04:24:38.023Z,4.70
2019-06-08T04:25:14.332Z,18.73
2019-06-08T04:25:50.705Z,6.63
2019-06-08T04:26:26.909Z,5.77
2019-06-08T04:27:02.473Z,7.37
2019-06-08T04:27:38.937Z,6.07
2019-06-08T04:28:16.825Z,9.15
2019-06-08T04:28:52.286Z,5.70
2019-06-08T04:29:28.836Z,6.33
2019-06-08T04:30:05.405Z,7.57
2019-06-08T04:30:41.476Z,8.97
2019-06-08T04:31:18.849Z,7.10
2019-06-08T04:31:54.958Z,5.57
2019-06-08T04:32:30.791Z,4.83
2019-06-08T04:33:06.855Z,6.40
2019-06-08T04:33:44.287Z,6.58
2019-06-08T04:34:20.459Z,4.87
2019-06-08T04:34:56.823Z,7.23
2019-06-08T04:35:32.915Z,4.95
2019-06-08T04:36:09.162Z,10.72
2019-06-08T04:36:46.413Z,6.63
2019-06-08T04:37:23.254Z,9.50
2019-06-08T04:37:59.231Z,2.63
2019-06-08T04:38:35.339Z,6.90
2019-06-08T04:39:11.739Z,7.07
2019-06-08T04:39:47.311Z,7.17
2019-06-08T04:40:23.801Z,6.15
2019-06-08T04:40:59.955Z,6.57
2019-06-08T04:41:35.790Z,9.67
2019-06-08T04:42:11.883Z,7.30
2019-06-08T04:42:49.372Z,5.23
2019-06-08T04:43:25.889Z,6.50
2019-06-08T04:44:02.064Z,5.67
2019-06-08T04:44:38.505Z,7.13
2019-06-08T04:45:14.787Z,6.60
2019-06-08T04:45:50.890Z,5.92
2019-06-08T04:46:28.439Z,7.87
2019-06-08T04:47:04.503Z,5.42
2019-06-08T04:47:41.495Z,7.07
2019-06-08T04:48:18.399Z,7.33
2019-06-08T04:48:54.123Z,6.20
2019-06-08T04:49:30.300Z,5.37
2019-06-08T04:50:21.765Z,5.23
2019-06-08T04:50:45.451Z,9.60
2019-06-08T04:51:22.155Z,6.80
2019-06-08T04:51:58.784Z,6.27
2019-06-08T04:52:34.823Z,6.07
2019-06-08T04:53:10.877Z,7.60
2019-06-08T04:53:49.335Z,5.27
2019-06-08T04:54:25.113Z,9.78
2019-06-08T04:55:01.368Z,4.40
2019-06-08T04:55:38.803Z,7.00
2019-06-08T04:56:14.363Z,6.37
2019-06-08T04:56:50.409Z,8.07
2019-06-08T04:57:26.985Z,6.63
2019-06-08T04:58:02.935Z,9.00
2019-06-08T04:58:39.880Z,6.73
2019-06-08T04:59:16.747Z,8.07
2019-06-08T04:59:52.215Z,3.67
2019-06-08T05:00:31.278Z,6.77
2019-06-08T05:01:06.429Z,9.30
2019-06-08T05:01:42.957Z,4.73
2019-06-08T05:02:19.898Z,4.23
2019-06-08T05:02:56.147Z,7.77
2019-06-08T05:03:31.600Z,10.47
2019-06-08T05:04:08.451Z,5.50
2019-06-08T05:04:45.313Z,6.83
2019-06-08T05:05:20.814Z,9.80
2019-06-08T05:05:56.963Z,7.12
2019-06-08T05:06:33.978Z,5.75
2019-06-08T05:07:09.798Z,7.47
2019-06-08T05:07:48.065Z,8.40
2019-06-08T05:08:24.500Z,5.07
2019-06-08T05:09:00.437Z,8.75
2019-06-08T05:09:36.503Z,7.73
2019-06-08T05:10:12.851Z,5.37
2019-06-08T05:10:49.722Z,7.25
2019-06-08T05:11:25.962Z,8.33
2019-06-08T05:12:03.485Z,8.33
2019-06-08T05:12:41.264Z,8.48
2019-06-08T05:13:18.350Z,11.70
2019-06-08T05:13:54.417Z,7.50
2019-06-08T05:14:29.991Z,6.70
2019-06-08T05:15:06.969Z,5.55
2019-06-08T05:15:43.311Z,7.53
2019-06-08T05:16:19.445Z,7.28
2019-06-08T05:16:55.557Z,5.67
2019-06-08T05:17:32.527Z,7.17
2019-06-08T05:18:08.021Z,6.47
2019-06-08T05:18:45.273Z,6.80
2019-06-08T05:19:21.631Z,6.72
2019-06-08T05:19:57.880Z,10.30
2019-06-08T05:20:38.787Z,6.67
2019-06-08T05:21:13.135Z,8.00
2019-06-08T05:21:49.848Z,5.07
2019-06-08T05:22:26.594Z,6.30
2019-06-08T05:23:03.372Z,10.15
2019-06-08T05:23:39.431Z,7.45
2019-06-08T05:24:16.133Z,10.65
2019-06-08T05:24:53.265Z,7.30
2019-06-08T05:25:29.776Z,6.90
2019-06-08T05:26:06.061Z,6.50
2019-06-08T05:26:43.628Z,6.55
2019-06-08T05:27:19.836Z,9.27
2019-06-08T05:27:56.350Z,9.58
2019-06-08T05:28:33.031Z,10.40
2019-06-08T05:29:09.141Z,5.65
2019-06-08T05:29:45.433Z,7.20
2019-06-08T05:30:21.956Z,7.70
2019-06-08T05:30:58.172Z,6.42
2019-06-08T05:31:34.920Z,3.87
2019-06-08T05:32:11.382Z,7.37
2019-06-08T05:32:47.611Z,5.33
2019-06-08T05:33:24.258Z,9.03
2019-06-08T05:34:00.991Z,5.83
2019-06-08T05:34:37.288Z,6.03
2019-06-08T05:35:14.189Z,7.28
2019-06-08T05:35:51.010Z,5.25
2019-06-08T05:36:27.126Z,6.05
2019-06-08T05:37:03.575Z,5.15
2019-06-08T05:37:39.622Z,6.60
2019-06-08T05:38:16.026Z,6.78
2019-06-08T05:38:52.132Z,5.63
2019-06-08T05:39:28.374Z,8.13
2019-06-08T05:40:04.346Z,7.28
2019-06-08T05:40:41.507Z,8.00
2019-06-08T05:41:17.738Z,6.87
2019-06-08T05:41:53.273Z,6.17
2019-06-08T05:42:29.337Z,5.13
2019-06-08T05:43:06.146Z,5.75
2019-06-08T05:43:41.710Z,6.62
2019-06-08T05:44:17.707Z,5.42
2019-06-08T05:44:54.692Z,6.80
2019-06-08T05:45:30.826Z,7.22
2019-06-08T05:46:06.887Z,7.00
2019-06-08T05:46:43.713Z,4.87
2019-06-08T05:47:19.366Z,6.03
2019-06-08T05:47:55.864Z,5.97
2019-06-08T05:48:32.571Z,7.53
2019-06-08T05:49:08.036Z,4.28
2019-06-08T05:49:44.074Z,6.57
2019-06-08T05:50:20.686Z,5.15
2019-06-08T05:51:03.934Z,8.00
2019-06-08T05:51:35.434Z,8.73
2019-06-08T05:52:11.791Z,4.53
2019-06-08T05:52:48.167Z,3.83
2019-06-08T05:53:24.832Z,6.58
2019-06-08T05:54:03.021Z,4.53
2019-06-08T05:54:39.855Z,4.15
2019-06-08T05:55:17.217Z,6.37
2019-06-08T05:55:53.404Z,8.45
2019-06-08T05:56:29.915Z,5.78
2019-06-08T05:57:06.101Z,3.58
2019-06-08T05:57:44.148Z,4.47
2019-06-08T05:58:19.732Z,4.75
2019-06-08T05:58:55.821Z,7.47
2019-06-08T05:59:31.918Z,6.03
2019-06-08T06:00:09.453Z,6.40
2019-06-08T06:00:46.242Z,6.42
2019-06-08T06:01:23.272Z,6.42
2019-06-08T06:01:58.805Z,5.72
2019-06-08T06:02:35.549Z,5.72
2019-06-08T06:03:12.513Z,4.72
2019-06-08T06:03:48.808Z,7.70
2019-06-08T06:04:25.744Z,4.90
2019-06-08T06:05:01.961Z,3.77
2019-06-08T06:05:37.396Z,8.00
2019-06-08T06:06:14.421Z,5.90
2019-06-08T06:06:51.507Z,6.55
2019-06-08T06:07:28.329Z,9.70
2019-06-08T06:08:18.036Z,7.42
2019-06-08T06:08:44.672Z,9.45
2019-06-08T06:09:20.777Z,5.60
2019-06-08T06:09:57.196Z,4.28
2019-06-08T06:10:33.671Z,4.80
2019-06-08T06:11:10.246Z,6.08
2019-06-08T06:11:46.844Z,6.28
2019-06-08T06:12:23.031Z,7.10
2019-06-08T06:12:59.536Z,4.55
2019-06-08T06:13:36.312Z,5.15
2019-06-08T06:14:13.052Z,4.90
2019-06-08T06:14:49.111Z,6.42
2019-06-08T06:15:26.324Z,6.85
2019-06-08T06:16:03.560Z,5.83
2019-06-08T06:16:40.849Z,6.95
2019-06-08T06:17:17.931Z,4.50
2019-06-08T06:17:54.944Z,7.15
2019-06-08T06:18:30.456Z,5.28
2019-06-08T06:19:06.600Z,4.53
2019-06-08T06:19:43.242Z,5.12
2019-06-08T06:20:19.406Z,3.92
2019-06-08T06:21:09.907Z,4.47
2019-06-08T06:21:33.974Z,5.42
2019-06-08T06:22:10.387Z,5.15
2019-06-08T06:22:47.729Z,9.20
2019-06-08T06:23:24.146Z,9.73
2019-06-08T06:23:59.753Z,5.30
2019-06-08T06:24:36.741Z,9.75
2019-06-08T06:25:13.386Z,5.67
2019-06-08T06:25:49.581Z,4.20
2019-06-08T06:26:26.425Z,7.30
2019-06-08T06:27:02.519Z,7.05
2019-06-08T06:27:37.967Z,5.77
2019-06-08T06:28:14.020Z,8.65
2019-06-08T06:28:51.673Z,4.50
2019-06-08T06:29:27.398Z,6.03
2019-06-08T06:30:03.989Z,6.25
2019-06-08T06:30:41.526Z,6.37
2019-06-08T06:31:17.517Z,7.85
2019-06-08T06:31:53.564Z,7.30
2019-06-08T06:32:30.182Z,6.10
2019-06-08T06:33:06.303Z,6.05
2019-06-08T06:33:43.838Z,5.28
2019-06-08T06:34:20.408Z,10.15
2019-06-08T06:34:56.824Z,7.15
2019-06-08T06:35:32.978Z,9.65
2019-06-08T06:36:09.145Z,2.95
2019-06-08T06:36:45.860Z,7.35
2019-06-08T06:37:22.529Z,7.03
2019-06-08T06:37:58.437Z,4.05
2019-06-08T06:38:35.262Z,10.05
2019-06-08T06:39:12.043Z,5.62
2019-06-08T06:39:49.960Z,7.78
2019-06-08T06:40:26.096Z,5.58
2019-06-08T06:41:03.401Z,8.65
2019-06-08T06:41:39.458Z,8.90
2019-06-08T06:42:14.936Z,7.35
2019-06-08T06:42:52.355Z,7.35
2019-06-08T06:43:29.199Z,4.65
2019-06-08T06:44:05.965Z,8.43
2019-06-08T06:44:44.899Z,5.45
2019-06-08T06:45:20.736Z,8.13
2019-06-08T06:45:56.239Z,9.63
2019-06-08T06:46:32.363Z,7.72
2019-06-08T06:47:09.149Z,5.60
2019-06-08T06:47:46.403Z,5.40
2019-06-08T06:48:23.585Z,8.53
2019-06-08T06:49:00.517Z,7.25
2019-06-08T06:49:37.341Z,4.08
2019-06-08T06:50:14.305Z,7.28
2019-06-08T06:50:50.951Z,6.30
2019-06-08T06:51:27.002Z,7.75
2019-06-08T06:52:04.293Z,5.87
2019-06-08T06:52:40.341Z,10.65
2019-06-08T06:53:16.727Z,9.38
2019-06-08T06:53:53.596Z,6.78
2019-06-08T06:54:30.678Z,5.90
2019-06-08T06:55:06.572Z,6.70
2019-06-08T06:55:42.858Z,5.83
2019-06-08T06:56:19.593Z,5.75
2019-06-08T06:56:55.542Z,4.33
2019-06-08T06:57:36.018Z,9.53
2019-06-08T06:58:10.532Z,8.18
2019-06-08T06:58:45.983Z,4.85
2019-06-08T06:59:22.709Z,6.50
2019-06-08T06:59:58.924Z,7.30
2019-06-08T07:00:35.439Z,6.87
2019-06-08T07:01:12.104Z,8.98
2019-06-08T07:01:52.622Z,8.63
2019-06-08T07:02:27.502Z,7.53
2019-06-08T07:03:04.327Z,7.47
2019-06-08T07:03:40.676Z,6.80
2019-06-08T07:04:17.272Z,7.80
2019-06-08T07:04:54.438Z,6.97
2019-06-08T07:05:30.648Z,10.90
2019-06-08T07:06:06.858Z,6.22
2019-06-08T07:06:44.019Z,3.70
2019-06-08T07:07:20.200Z,8.13
2019-06-08T07:07:55.675Z,6.42
2019-06-08T07:08:32.041Z,7.45
2019-06-08T07:09:08.601Z,8.53
2019-06-08T07:09:44.431Z,7.30
2019-06-08T07:10:21.415Z,10.45
2019-06-08T07:10:57.678Z,7.25
2019-06-08T07:11:33.228Z,8.93
2019-06-08T07:12:09.860Z,5.15
2019-06-08T07:12:46.583Z,6.53
2019-06-08T07:13:22.768Z,4.80
2019-06-08T07:13:58.855Z,4.25
2019-06-08T07:14:35.298Z,6.47
2019-06-08T07:15:11.753Z,7.90
2019-06-08T07:15:51.530Z,11.78
2019-06-08T07:16:26.339Z,9.30
2019-06-08T07:17:02.470Z,7.17
2019-06-08T07:17:39.118Z,6.35
2019-06-08T07:18:15.497Z,9.57
2019-06-08T07:18:52.412Z,6.90
2019-06-08T07:19:29.251Z,10.00
2019-06-08T07:20:07.371Z,5.47
2019-06-08T07:20:43.343Z,6.85
2019-06-08T07:21:19.404Z,8.43
2019-06-08T07:21:56.394Z,5.05
2019-06-08T07:22:31.918Z,9.13
2019-06-08T07:23:08.354Z,8.73
2019-06-08T07:23:44.438Z,6.90
2019-06-08T07:24:19.896Z,7.03
2019-06-08T07:24:56.272Z,8.13
2019-06-08T07:25:33.287Z,5.85
2019-06-08T07:26:09.760Z,4.97
2019-06-08T07:26:46.686Z,5.37
2019-06-08T07:27:23.426Z,6.72
2019-06-08T07:27:59.492Z,4.55
2019-06-08T07:28:36.151Z,5.50
2019-06-08T07:29:12.812Z,2.80
2019-06-08T07:29:48.822Z,9.25
2019-06-08T07:30:24.901Z,8.95
2019-06-08T07:31:01.542Z,7.28
2019-06-08T07:31:37.084Z,6.67
2019-06-08T07:32:13.153Z,5.90
2019-06-08T07:32:50.949Z,7.17
2019-06-08T07:33:26.684Z,6.53
2019-06-08T07:34:02.809Z,6.72
2019-06-08T07:34:41.173Z,7.40
2019-06-08T07:35:16.008Z,7.65
2019-06-08T07:35:53.266Z,6.05
2019-06-08T07:36:30.047Z,7.22
2019-06-08T07:37:05.518Z,10.13
2019-06-08T07:37:41.584Z,5.70
2019-06-08T07:38:17.627Z,6.50
2019-06-08T07:38:53.469Z,8.15
2019-06-08T07:39:29.591Z,7.45
2019-06-08T07:40:06.326Z,5.80
2019-06-08T07:40:41.786Z,5.78
2019-06-08T07:41:17.856Z,7.90
2019-06-08T07:41:55.863Z,4.95
2019-06-08T07:42:32.658Z,6.45
2019-06-08T07:43:09.446Z,4.20
2019-06-08T07:43:46.078Z,5.92
2019-06-08T07:44:22.536Z,8.58
2019-06-08T07:45:00.386Z,6.25
2019-06-08T07:45:37.200Z,5.17
2019-06-08T07:46:13.256Z,6.55
2019-06-08T07:46:49.441Z,7.70
2019-06-08T07:47:26.426Z,6.60
2019-06-08T07:48:02.371Z,8.25
2019-06-08T07:48:38.459Z,9.18
2019-06-08T07:49:14.490Z,10.00
2019-06-08T07:49:51.109Z,8.40
2019-06-08T07:50:27.260Z,8.63
2019-06-08T07:51:03.427Z,6.40
2019-06-08T07:51:40.231Z,10.48
2019-06-08T07:52:16.273Z,4.12
2019-06-08T07:52:54.554Z,7.05
2019-06-08T07:53:30.636Z,9.40
2019-06-08T07:54:06.775Z,5.03
2019-06-08T07:54:43.149Z,8.05
2019-06-08T07:55:18.601Z,6.15
2019-06-08T07:55:56.261Z,7.35
2019-06-08T07:56:32.606Z,6.85
2019-06-08T07:57:08.967Z,5.83
2019-06-08T07:57:45.587Z,6.60
2019-06-08T07:58:21.980Z,4.08
2019-06-08T07:58:59.005Z,6.12
2019-06-08T07:59:36.134Z,8.18
2019-06-08T08:00:12.509Z,4.33
2019-06-08T08:00:50.012Z,5.53
2019-06-08T08:01:36.317Z,6.78
2019-06-08T08:02:06.073Z,6.95
2019-06-08T08:02:42.424Z,5.22
2019-06-08T08:03:18.877Z,5.20
2019-06-08T08:03:56.333Z,8.13
2019-06-08T08:04:32.047Z,5.67
2019-06-08T08:05:08.632Z,6.78
2019-06-08T08:05:44.655Z,4.87
2019-06-08T08:06:21.053Z,5.65
2019-06-08T08:06:58.800Z,3.77